createdAt,value
2018-07-28T00:00:33.034Z,0.00
2018-07-28T00:01:32.818Z,0.00
2018-07-28T00:02:32.853Z,0.00
2018-07-28T00:03:32.842Z,0.00
2018-07-28T00:04:32.877Z,0.00
2018-07-28T00:05:32.962Z,0.00
2018-07-28T00:06:32.955Z,0.00
2018-07-28T00:07:33.293Z,0.00
2018-07-28T00:08:33.027Z,0.00
2018-07-28T00:09:33.110Z,0.00
2018-07-28T00:10:33.154Z,0.00
2018-07-28T00:11:33.192Z,0.00
2018-07-28T00:12:33.178Z,0.00
2018-07-28T00:13:33.571Z,0.00
2018-07-28T00:14:33.253Z,0.00
2018-07-28T00:15:33.335Z,0.00
2018-07-28T00:16:33.324Z,0.00
2018-07-28T00:17:33.411Z,0.00
2018-07-28T00:18:33.445Z,0.00
2018-07-28T00:19:33.735Z,0.00
2018-07-28T00:20:33.494Z,0.00
2018-07-28T00:21:33.564Z,0.00
2018-07-28T00:22:33.599Z,0.00
2018-07-28T00:23:33.583Z,0.00
2018-07-28T00:24:33.636Z,0.00
2018-07-28T00:25:34.014Z,0.00
2018-07-28T00:27:33.782Z,0.00
2018-07-28T00:28:33.827Z,0.00
2018-07-28T00:29:33.857Z,0.00
2018-07-28T00:30:33.853Z,0.00
2018-07-28T00:31:33.943Z,0.00
2018-07-28T00:32:34.226Z,0.00
2018-07-28T00:33:34.017Z,0.00
2018-07-28T00:34:34.049Z,0.00
2018-07-28T00:35:34.082Z,0.00
2018-07-28T00:36:34.078Z,0.00
2018-07-28T00:37:34.165Z,0.00
2018-07-28T00:38:34.196Z,0.00
2018-07-28T00:39:34.243Z,0.00
2018-07-28T00:40:34.270Z,0.00
2018-07-28T00:41:34.259Z,0.00
2018-07-28T00:42:34.347Z,0.00
2018-07-28T00:43:34.330Z,0.00
2018-07-28T00:45:34.460Z,0.00
2018-07-28T00:46:34.742Z,0.00
2018-07-28T00:47:34.482Z,0.00
2018-07-28T00:48:34.534Z,0.00
2018-07-28T00:49:34.609Z,0.00
2018-07-28T00:50:34.639Z,0.00
2018-07-28T00:51:34.628Z,0.00
2018-07-28T00:52:34.666Z,0.00
2018-07-28T00:54:35.061Z,0.00
2018-07-28T00:56:34.872Z,0.00
2018-07-28T00:57:34.915Z,0.00
2018-07-28T00:58:34.935Z,0.00
2018-07-28T00:59:34.932Z,0.00
2018-07-28T01:00:35.014Z,0.00
2018-07-28T01:01:35.351Z,0.00
2018-07-28T01:02:35.040Z,0.00
2018-07-28T01:03:35.121Z,0.00
2018-07-28T01:04:35.128Z,0.00
2018-07-28T01:05:35.200Z,0.00
2018-07-28T01:06:35.182Z,0.00
2018-07-28T01:07:35.228Z,0.00
2018-07-28T01:08:35.605Z,0.00
2018-07-28T01:09:35.358Z,0.00
2018-07-28T01:10:35.332Z,0.00
2018-07-28T01:11:35.367Z,0.00
2018-07-28T01:12:35.453Z,0.00
2018-07-28T01:13:35.494Z,0.00
2018-07-28T01:14:35.483Z,0.00
2018-07-28T01:15:35.837Z,0.00
2018-07-28T01:19:13.365Z,0.00
2018-07-28T01:20:13.396Z,0.00
2018-07-28T01:21:13.383Z,0.00
2018-07-28T01:22:13.726Z,0.00
2018-07-28T01:23:13.458Z,0.00
2018-07-28T01:24:13.547Z,0.00
2018-07-28T01:25:13.587Z,0.00
2018-07-28T01:26:13.575Z,0.00
2018-07-28T01:27:13.663Z,0.00
2018-07-28T01:28:13.700Z,0.00
2018-07-28T01:29:13.991Z,0.00
2018-07-28T01:30:13.765Z,0.00
2018-07-28T01:31:13.752Z,0.00
2018-07-28T01:32:13.786Z,0.00
2018-07-28T01:33:13.874Z,0.00
2018-07-28T01:34:13.924Z,0.00
2018-07-28T01:35:13.902Z,0.00
2018-07-28T01:36:14.240Z,0.00
2018-07-28T01:37:14.034Z,0.00
2018-07-28T01:38:14.056Z,0.00
2018-07-28T01:39:14.048Z,0.00
2018-07-28T01:40:14.086Z,0.00
2018-07-28T01:41:14.185Z,0.00
2018-07-28T01:42:14.319Z,0.00
2018-07-28T01:43:14.552Z,0.00
2018-07-28T01:44:14.230Z,0.00
2018-07-28T01:45:14.323Z,0.00
2018-07-28T01:46:14.311Z,0.00
2018-07-28T01:47:14.398Z,0.00
2018-07-28T01:48:14.381Z,0.00
2018-07-28T01:49:14.471Z,0.00
2018-07-28T01:50:14.496Z,0.00
2018-07-28T01:51:14.492Z,0.00
2018-07-28T01:52:14.574Z,0.00
2018-07-28T01:53:14.562Z,0.00
2018-07-28T01:54:14.653Z,0.00
2018-07-28T01:55:14.630Z,0.00
2018-07-28T01:56:15.080Z,0.00
2018-07-28T01:57:14.760Z,0.00
2018-07-28T01:58:14.795Z,0.00
2018-07-28T01:59:14.780Z,0.00
2018-07-28T02:00:14.812Z,0.00
2018-07-28T02:01:14.910Z,0.00
2018-07-28T02:02:14.938Z,0.00
2018-07-28T02:03:15.231Z,0.00
2018-07-28T02:04:15.015Z,0.00
2018-07-28T02:05:15.002Z,0.00
2018-07-28T02:06:15.088Z,0.00
2018-07-28T02:07:15.175Z,0.00
2018-07-28T02:08:15.114Z,0.00
2018-07-28T02:09:15.191Z,0.00
2018-07-28T02:10:15.532Z,0.00
2018-07-28T02:11:15.221Z,0.00
2018-07-28T02:12:15.256Z,0.00
2018-07-28T02:13:15.343Z,0.00
2018-07-28T02:14:15.328Z,0.00
2018-07-28T02:15:15.420Z,0.00
2018-07-28T02:16:15.459Z,0.00
2018-07-28T02:17:15.747Z,0.00
2018-07-28T02:18:15.473Z,0.00
2018-07-28T02:19:15.508Z,0.00
2018-07-28T02:20:15.548Z,0.00
2018-07-28T02:21:15.631Z,0.00
2018-07-28T02:22:15.671Z,0.00
2018-07-28T02:23:15.959Z,0.00
2018-07-28T02:24:15.798Z,0.00
2018-07-28T02:25:15.783Z,0.00
2018-07-28T02:26:15.814Z,0.00
2018-07-28T02:27:15.855Z,0.00
2018-07-28T02:28:15.844Z,0.00
2018-07-28T02:29:16.227Z,0.00
2018-07-28T02:30:15.911Z,0.00
2018-07-28T02:31:16.021Z,0.00
2018-07-28T02:32:15.987Z,0.00
2018-07-28T02:33:16.019Z,0.00
2018-07-28T02:34:16.112Z,0.00
2018-07-28T02:35:16.401Z,0.00
2018-07-28T02:36:16.133Z,0.00
2018-07-28T02:37:16.225Z,0.00
2018-07-28T02:38:16.251Z,0.00
2018-07-28T02:39:16.294Z,0.00
2018-07-28T02:40:16.329Z,0.00
2018-07-28T02:41:16.322Z,0.00
2018-07-28T02:42:16.648Z,0.00
2018-07-28T02:43:16.386Z,0.00
2018-07-28T02:44:16.427Z,0.00
2018-07-28T02:45:16.515Z,0.00
2018-07-28T02:46:16.543Z,0.00
2018-07-28T02:47:16.543Z,0.00
2018-07-28T02:48:16.568Z,0.00
2018-07-28T02:49:16.910Z,0.00
2018-07-28T02:50:16.695Z,0.00
2018-07-28T02:51:16.696Z,0.00
2018-07-28T02:52:16.716Z,0.00
2018-07-28T02:53:16.805Z,0.00
2018-07-28T02:54:16.784Z,0.00
2018-07-28T02:55:16.876Z,0.00
2018-07-28T02:56:17.163Z,0.00
2018-07-28T02:57:16.954Z,0.00
2018-07-28T02:58:16.983Z,0.00
2018-07-28T02:59:16.971Z,0.00
2018-07-28T03:00:17.125Z,0.00
2018-07-28T03:01:17.094Z,0.00
2018-07-28T03:02:17.150Z,0.00
2018-07-28T03:03:17.470Z,0.00
2018-07-28T03:04:17.150Z,0.00
2018-07-28T03:05:17.196Z,0.00
2018-07-28T03:06:17.274Z,0.00
2018-07-28T03:07:17.307Z,0.00
2018-07-28T03:08:17.293Z,0.00
2018-07-28T03:10:17.423Z,0.00
2018-07-28T03:11:17.705Z,0.00
2018-07-28T03:12:17.499Z,0.00
2018-07-28T03:13:17.531Z,0.00
2018-07-28T03:16:17.635Z,0.00
2018-07-28T03:17:17.616Z,0.00
2018-07-28T03:18:17.951Z,0.00
2018-07-28T03:19:17.686Z,0.00
2018-07-28T03:20:17.732Z,0.00
2018-07-28T03:21:17.811Z,0.00
2018-07-28T03:22:17.849Z,0.00
2018-07-28T03:23:17.836Z,0.00
2018-07-28T03:24:17.922Z,0.00
2018-07-28T03:25:18.261Z,0.00
2018-07-28T03:26:17.993Z,0.00
2018-07-28T03:27:17.984Z,4.00
2018-07-28T03:28:18.015Z,4.00
2018-07-28T03:29:18.098Z,0.00
2018-07-28T03:30:18.136Z,0.00
2018-07-28T03:31:18.138Z,4.00
2018-07-28T03:32:18.462Z,4.00
2018-07-28T03:33:18.249Z,4.00
2018-07-28T03:34:18.226Z,4.00
2018-07-28T03:35:18.319Z,4.00
2018-07-28T03:36:18.305Z,8.00
2018-07-28T03:37:18.391Z,8.00
2018-07-28T03:38:18.423Z,8.00
2018-07-28T03:39:18.719Z,8.00
2018-07-28T03:40:18.444Z,12.00
2018-07-28T03:41:18.534Z,12.00
2018-07-28T03:42:18.568Z,16.00
2018-07-28T03:43:18.610Z,16.00
2018-07-28T03:44:18.591Z,20.00
2018-07-28T03:45:18.679Z,20.00
2018-07-28T03:46:18.959Z,24.00
2018-07-28T03:47:18.699Z,28.00
2018-07-28T03:48:18.785Z,28.00
2018-07-28T03:50:18.802Z,36.00
2018-07-28T03:51:18.843Z,40.00
2018-07-28T03:52:18.882Z,48.00
2018-07-28T03:53:19.270Z,48.00
2018-07-28T03:54:19.002Z,56.00
2018-07-28T03:55:18.983Z,60.00
2018-07-28T03:56:19.021Z,64.00
2018-07-28T03:57:19.106Z,76.00
2018-07-28T03:58:19.147Z,76.00
2018-07-28T03:59:19.178Z,84.00
2018-07-28T04:00:19.464Z,92.00
2018-07-28T04:01:19.266Z,104.00
2018-07-28T04:02:19.254Z,108.00
2018-07-28T04:03:19.281Z,120.00
2018-07-28T04:04:19.359Z,128.00
2018-07-28T04:05:19.398Z,136.00
2018-07-28T04:06:19.435Z,144.00
2018-07-28T04:07:19.716Z,152.00
2018-07-28T04:08:19.463Z,164.00
2018-07-28T04:09:19.496Z,176.00
2018-07-28T04:10:19.524Z,188.00
2018-07-28T04:11:19.617Z,196.00
2018-07-28T04:12:19.605Z,212.00
2018-07-28T04:13:19.685Z,228.00
2018-07-28T04:14:19.977Z,240.00
2018-07-28T04:15:19.705Z,256.00
2018-07-28T04:16:19.804Z,268.00
2018-07-28T04:17:19.831Z,284.00
2018-07-28T04:18:19.822Z,300.00
2018-07-28T04:19:19.851Z,316.00
2018-07-28T04:20:19.940Z,336.00
2018-07-28T04:21:20.224Z,352.00
2018-07-28T04:22:19.978Z,372.00
2018-07-28T04:23:20.002Z,392.00
2018-07-28T04:25:20.074Z,428.00
2018-07-28T04:26:20.156Z,448.00
2018-07-28T04:27:20.443Z,468.00
2018-07-28T04:28:20.236Z,488.00
2018-07-28T04:29:20.270Z,508.00
2018-07-28T04:30:20.251Z,532.00
2018-07-28T04:31:20.286Z,548.00
2018-07-28T04:32:20.325Z,564.00
2018-07-28T04:33:20.666Z,580.00
2018-07-28T04:34:20.448Z,592.00
2018-07-28T04:35:20.428Z,604.00
2018-07-28T04:36:20.468Z,616.00
2018-07-28T04:37:20.554Z,624.00
2018-07-28T04:38:20.549Z,632.00
2018-07-28T04:39:20.927Z,636.00
2018-07-28T04:40:20.669Z,644.00
2018-07-28T04:41:20.707Z,644.00
2018-07-28T04:42:20.685Z,648.00
2018-07-28T04:43:20.726Z,652.00
2018-07-28T04:44:20.770Z,668.00
2018-07-28T04:45:20.849Z,684.00
2018-07-28T04:46:21.184Z,700.00
2018-07-28T04:47:20.871Z,716.00
2018-07-28T04:48:20.908Z,724.00
2018-07-28T04:49:20.940Z,728.00
2018-07-28T04:50:20.972Z,724.00
2018-07-28T04:51:21.057Z,712.00
2018-07-28T04:52:21.047Z,684.00
2018-07-28T04:53:21.436Z,660.00
2018-07-28T04:54:21.174Z,628.00
2018-07-28T04:55:21.159Z,600.00
2018-07-28T04:56:21.242Z,572.00
2018-07-28T04:57:21.280Z,548.00
2018-07-28T04:58:21.315Z,540.00
2018-07-28T04:59:21.304Z,544.00
2018-07-28T05:00:21.334Z,556.00
2018-07-28T05:01:21.372Z,560.00
2018-07-28T05:02:21.460Z,556.00
2018-07-28T05:03:21.448Z,532.00
2018-07-28T05:04:21.481Z,516.00
2018-07-28T05:05:21.568Z,492.00
2018-07-28T05:06:21.863Z,464.00
2018-07-28T05:07:21.662Z,412.00
2018-07-28T05:08:21.678Z,364.00
2018-07-28T05:09:21.721Z,320.00
2018-07-28T05:10:21.699Z,288.00
2018-07-28T05:11:21.738Z,264.00
2018-07-28T05:12:21.837Z,248.00
2018-07-28T05:13:22.165Z,228.00
2018-07-28T05:14:21.855Z,204.00
2018-07-28T05:15:21.934Z,176.00
2018-07-28T05:16:21.917Z,152.00
2018-07-28T05:17:22.004Z,124.00
2018-07-28T05:18:21.999Z,96.00
2018-07-28T05:19:22.081Z,88.00
2018-07-28T05:20:22.378Z,80.00
2018-07-28T05:21:22.163Z,76.00
2018-07-28T05:22:22.143Z,72.00
2018-07-28T05:23:22.175Z,72.00
2018-07-28T05:24:22.257Z,68.00
2018-07-28T05:25:22.299Z,68.00
2018-07-28T05:26:22.289Z,68.00
2018-07-28T05:27:22.673Z,72.00
2018-07-28T05:28:22.410Z,68.00
2018-07-28T05:29:22.390Z,72.00
2018-07-28T05:31:22.463Z,80.00
2018-07-28T05:32:22.556Z,84.00
2018-07-28T05:33:22.591Z,92.00
2018-07-28T05:34:22.573Z,100.00
2018-07-28T05:35:22.609Z,112.00
2018-07-28T05:36:22.651Z,128.00
2018-07-28T05:37:22.731Z,140.00
2018-07-28T05:38:22.769Z,152.00
2018-07-28T05:39:22.806Z,160.00
2018-07-28T05:40:23.093Z,164.00
2018-07-28T05:41:22.880Z,164.00
2018-07-28T05:42:22.865Z,168.00
2018-07-28T05:43:22.912Z,172.00
2018-07-28T05:44:22.998Z,176.00
2018-07-28T05:45:23.030Z,172.00
2018-07-28T05:46:23.366Z,176.00
2018-07-28T05:47:23.052Z,184.00
2018-07-28T05:48:23.088Z,200.00
2018-07-28T05:49:23.119Z,212.00
2018-07-28T05:50:23.173Z,216.00
2018-07-28T05:51:23.249Z,212.00
2018-07-28T05:52:23.537Z,208.00
2018-07-28T05:53:23.321Z,204.00
2018-07-28T05:55:23.354Z,216.00
2018-07-28T05:56:23.444Z,248.00
2018-07-28T05:57:23.418Z,288.00
2018-07-28T05:58:23.454Z,296.00
2018-07-28T05:59:23.792Z,284.00
2018-07-28T06:00:23.572Z,288.00
2018-07-28T06:01:23.609Z,308.00
2018-07-28T06:02:23.674Z,332.00
2018-07-28T06:03:23.628Z,344.00
2018-07-28T06:04:23.668Z,364.00
2018-07-28T06:05:23.757Z,372.00
2018-07-28T06:06:24.039Z,380.00
2018-07-28T06:07:23.773Z,388.00
2018-07-28T06:08:23.831Z,396.00
2018-07-28T06:09:23.907Z,404.00
2018-07-28T06:10:23.940Z,408.00
2018-07-28T06:11:23.923Z,412.00
2018-07-28T06:12:23.971Z,404.00
2018-07-28T06:13:24.298Z,404.00
2018-07-28T06:14:24.084Z,424.00
2018-07-28T06:15:24.074Z,468.00
2018-07-28T06:16:24.114Z,528.00
2018-07-28T06:17:24.188Z,580.00
2018-07-28T06:18:24.175Z,624.00
2018-07-28T06:19:24.265Z,660.00
2018-07-28T06:20:24.666Z,680.00
2018-07-28T06:21:24.339Z,684.00
2018-07-28T06:22:24.324Z,688.00
2018-07-28T06:23:24.410Z,700.00
2018-07-28T06:24:24.401Z,724.00
2018-07-28T06:26:24.517Z,760.00
2018-07-28T06:27:24.808Z,804.00
2018-07-28T06:28:24.545Z,864.00
2018-07-28T06:29:24.628Z,900.00
2018-07-28T06:30:24.681Z,932.00
2018-07-28T06:31:24.655Z,948.00
2018-07-28T06:32:24.694Z,972.00
2018-07-28T06:33:24.722Z,992.00
2018-07-28T06:34:25.067Z,1020.00
2018-07-28T06:35:24.848Z,1040.00
2018-07-28T06:36:24.886Z,1056.00
2018-07-28T06:37:24.929Z,1052.00
2018-07-28T06:38:24.905Z,1048.00
2018-07-28T06:39:25.029Z,1048.00
2018-07-28T06:40:24.990Z,1080.00
2018-07-28T06:41:25.323Z,1148.00
2018-07-28T06:42:25.098Z,1180.00
2018-07-28T06:43:25.087Z,1192.00
2018-07-28T06:44:25.174Z,1200.00
2018-07-28T06:45:25.223Z,1212.00
2018-07-28T06:46:25.253Z,1224.00
2018-07-28T06:47:25.252Z,1232.00
2018-07-28T06:49:25.612Z,1232.00
2018-07-28T06:50:26.069Z,1220.00
2018-07-28T06:51:25.626Z,1208.00
2018-07-28T06:52:25.415Z,1188.00
2018-07-28T06:53:25.506Z,1172.00
2018-07-28T06:54:25.489Z,1160.00
2018-07-28T06:55:25.529Z,1152.00
2018-07-28T06:56:25.916Z,1144.00
2018-07-28T06:58:25.682Z,1148.00
2018-07-28T07:00:25.707Z,1172.00
2018-07-28T07:01:25.812Z,1176.00
2018-07-28T07:02:25.833Z,1184.00
2018-07-28T07:03:26.123Z,1188.00
2018-07-28T07:04:25.911Z,1196.00
2018-07-28T07:05:25.945Z,1212.00
2018-07-28T07:07:26.018Z,1268.00
2018-07-28T07:08:26.020Z,1292.00
2018-07-28T07:09:26.056Z,1296.00
2018-07-28T07:10:26.372Z,1296.00
2018-07-28T07:11:26.114Z,1308.00
2018-07-28T07:12:26.207Z,1352.00
2018-07-28T07:13:26.235Z,1436.00
2018-07-28T07:14:26.279Z,1524.00
2018-07-28T07:15:26.256Z,1580.00
2018-07-28T07:16:26.298Z,1592.00
2018-07-28T07:17:26.695Z,1600.00
2018-07-28T07:18:26.419Z,1620.00
2018-07-28T07:19:26.409Z,1652.00
2018-07-28T07:20:26.451Z,1672.00
2018-07-28T07:21:26.486Z,1668.00
2018-07-28T07:22:26.567Z,1652.00
2018-07-28T07:23:26.551Z,1636.00
2018-07-28T07:24:26.895Z,1616.00
2018-07-28T07:25:26.678Z,1604.00
2018-07-28T07:26:26.670Z,1604.00
2018-07-28T07:27:26.750Z,1620.00
2018-07-28T07:28:26.784Z,1620.00
2018-07-28T07:29:26.820Z,1620.00
2018-07-28T07:30:26.862Z,1620.00
2018-07-28T07:31:27.151Z,1632.00
2018-07-28T07:32:26.935Z,1648.00
2018-07-28T07:33:26.966Z,1660.00
2018-07-28T07:34:26.952Z,1668.00
2018-07-28T07:35:27.000Z,1664.00
2018-07-28T07:36:27.027Z,1660.00
2018-07-28T07:37:27.069Z,1664.00
2018-07-28T07:38:27.460Z,1684.00
2018-07-28T07:39:27.140Z,1708.00
2018-07-28T07:40:27.178Z,1728.00
2018-07-28T07:41:27.267Z,1752.00
2018-07-28T07:42:27.300Z,1764.00
2018-07-28T07:43:27.338Z,1756.00
2018-07-28T07:44:27.630Z,1748.00
2018-07-28T07:45:27.413Z,1744.00
2018-07-28T07:46:27.445Z,1744.00
2018-07-28T07:47:27.678Z,1748.00
2018-07-28T07:48:27.468Z,1752.00
2018-07-28T07:49:27.563Z,1748.00
2018-07-28T07:50:27.605Z,1744.00
2018-07-28T07:51:27.630Z,1748.00
2018-07-28T07:52:27.615Z,1748.00
2018-07-28T07:53:27.704Z,1744.00
2018-07-28T07:54:27.749Z,1740.00
2018-07-28T07:55:27.731Z,1728.00
2018-07-28T07:56:28.066Z,1708.00
2018-07-28T07:57:27.802Z,1672.00
2018-07-28T07:58:27.843Z,1656.00
2018-07-28T07:59:27.927Z,1636.00
2018-07-28T08:00:27.969Z,1576.00
2018-07-28T08:01:28.006Z,1500.00
2018-07-28T08:02:27.990Z,1436.00
2018-07-28T08:03:28.385Z,1396.00
2018-07-28T08:04:28.068Z,1356.00
2018-07-28T08:05:28.104Z,1340.00
2018-07-28T08:06:28.258Z,1340.00
2018-07-28T08:07:28.226Z,1364.00
2018-07-28T08:08:28.221Z,1412.00
2018-07-28T08:09:28.298Z,1444.00
2018-07-28T08:10:28.583Z,1456.00
2018-07-28T08:11:28.373Z,1468.00
2018-07-28T08:12:28.458Z,1488.00
2018-07-28T08:13:28.398Z,1504.00
2018-07-28T08:14:28.487Z,1544.00
2018-07-28T08:15:28.483Z,1572.00
2018-07-28T08:16:28.556Z,1604.00
2018-07-28T08:17:28.854Z,1624.00
2018-07-28T08:18:28.679Z,1652.00
2018-07-28T08:19:28.625Z,1668.00
2018-07-28T08:20:28.655Z,1676.00
2018-07-28T08:21:28.744Z,1680.00
2018-07-28T08:22:28.782Z,1680.00
2018-07-28T08:23:28.816Z,1676.00
2018-07-28T08:24:28.855Z,1668.00
2018-07-28T08:25:28.899Z,1668.00
2018-07-28T08:26:28.893Z,1676.00
2018-07-28T08:27:28.914Z,1680.00
2018-07-28T08:28:29.015Z,1672.00
2018-07-28T08:29:28.993Z,1648.00
2018-07-28T08:30:29.327Z,1628.00
2018-07-28T08:31:29.071Z,1612.00
2018-07-28T08:32:29.115Z,1616.00
2018-07-28T08:33:29.253Z,1620.00
2018-07-28T08:34:29.234Z,1624.00
2018-07-28T08:35:29.219Z,1636.00
2018-07-28T08:36:29.262Z,1664.00
2018-07-28T08:37:29.348Z,1704.00
2018-07-28T08:38:29.325Z,1740.00
2018-07-28T08:39:29.418Z,1780.00
2018-07-28T08:40:29.398Z,1824.00
2018-07-28T08:41:29.496Z,1884.00
2018-07-28T08:42:29.482Z,1948.00
2018-07-28T08:43:29.874Z,2000.00
2018-07-28T08:44:30.452Z,2052.00
2018-07-28T08:45:29.594Z,2112.00
2018-07-28T08:46:29.675Z,2176.00
2018-07-28T08:47:29.667Z,2244.00
2018-07-28T08:48:29.704Z,2304.00
2018-07-28T08:49:29.796Z,2364.00
2018-07-28T08:50:29.833Z,2416.00
2018-07-28T08:51:29.823Z,2452.00
2018-07-28T08:52:29.901Z,2468.00
2018-07-28T08:53:29.935Z,2468.00
2018-07-28T08:54:29.971Z,2448.00
2018-07-28T08:55:30.315Z,2404.00
2018-07-28T08:56:30.089Z,2384.00
2018-07-28T08:57:30.090Z,2384.00
2018-07-28T08:58:30.131Z,2404.00
2018-07-28T08:59:30.116Z,2448.00
2018-07-28T09:00:30.152Z,2468.00
2018-07-28T09:01:30.239Z,2484.00
2018-07-28T09:02:30.284Z,2508.00
2018-07-28T09:03:30.262Z,2532.00
2018-07-28T09:04:30.323Z,2568.00
2018-07-28T09:05:30.392Z,2584.00
2018-07-28T09:06:30.369Z,2572.00
2018-07-28T09:07:30.463Z,2568.00
2018-07-28T09:08:30.451Z,2544.00
2018-07-28T09:09:30.534Z,2556.00
2018-07-28T09:10:30.635Z,2604.00
2018-07-28T09:11:30.562Z,2684.00
2018-07-28T09:12:30.753Z,2748.00
2018-07-28T09:13:30.693Z,2824.00
2018-07-28T09:14:30.677Z,2912.00
2018-07-28T09:15:30.776Z,2916.00
2018-07-28T09:16:30.777Z,2932.00
2018-07-28T09:17:30.844Z,2976.00
2018-07-28T09:18:30.884Z,2860.00
2018-07-28T09:20:31.205Z,2820.00
2018-07-28T09:21:31.003Z,2776.00
2018-07-28T09:22:31.067Z,2816.00
2018-07-28T09:23:31.080Z,2740.00
2018-07-28T09:24:31.057Z,2580.00
2018-07-28T09:25:31.141Z,2508.00
2018-07-28T09:26:31.442Z,2492.00
2018-07-28T09:27:31.223Z,2444.00
2018-07-28T09:28:31.202Z,2440.00
2018-07-28T09:29:31.287Z,2404.00
2018-07-28T09:30:31.348Z,2348.00
2018-07-28T09:31:31.364Z,2320.00
2018-07-28T09:32:31.659Z,2396.00
2018-07-28T09:33:31.444Z,2484.00
2018-07-28T09:34:31.422Z,2528.00
2018-07-28T09:35:31.513Z,2456.00
2018-07-28T09:36:31.506Z,2492.00
2018-07-28T09:37:31.605Z,2548.00
2018-07-28T09:38:31.574Z,2512.00
2018-07-28T09:39:31.670Z,2404.00
2018-07-28T09:40:31.706Z,2260.00
2018-07-28T09:41:31.694Z,2164.00
2018-07-28T09:42:31.742Z,2148.00
2018-07-28T09:43:31.772Z,2196.00
2018-07-28T09:44:32.107Z,2312.00
2018-07-28T09:45:31.888Z,2404.00
2018-07-28T09:46:31.934Z,2520.00
2018-07-28T09:47:31.964Z,2644.00
2018-07-28T09:48:31.951Z,2684.00
2018-07-28T09:49:32.013Z,2748.00
2018-07-28T09:50:32.082Z,2764.00
2018-07-28T09:51:32.367Z,2692.00
2018-07-28T09:52:32.101Z,2420.00
2018-07-28T09:53:32.199Z,2104.00
2018-07-28T09:54:32.180Z,1784.00
2018-07-28T09:55:32.267Z,1552.00
2018-07-28T09:56:32.259Z,1508.00
2018-07-28T09:57:32.295Z,1596.00
2018-07-28T09:58:32.638Z,1744.00
2018-07-28T09:59:32.424Z,1888.00
2018-07-28T10:00:32.455Z,2000.00
2018-07-28T10:01:32.499Z,2060.00
2018-07-28T10:02:32.530Z,2136.00
2018-07-28T10:03:32.524Z,2308.00
2018-07-28T10:04:32.678Z,2532.00
2018-07-28T10:05:32.991Z,2688.00
2018-07-28T10:06:32.687Z,2748.00
2018-07-28T10:07:32.721Z,2764.00
2018-07-28T10:08:32.708Z,2772.00
2018-07-28T10:09:32.818Z,2784.00
2018-07-28T10:10:32.833Z,2784.00
2018-07-28T10:11:32.885Z,2768.00
2018-07-28T10:12:33.605Z,2744.00
2018-07-28T10:13:32.928Z,2708.00
2018-07-28T10:15:33.026Z,2636.00
2018-07-28T10:16:33.060Z,2624.00
2018-07-28T10:17:33.097Z,2628.00
2018-07-28T10:18:33.386Z,2628.00
2018-07-28T10:19:33.128Z,2584.00
2018-07-28T10:20:33.218Z,2540.00
2018-07-28T10:21:33.255Z,2488.00
2018-07-28T10:22:33.291Z,2448.00
2018-07-28T10:23:33.329Z,2436.00
2018-07-28T10:24:33.379Z,2392.00
2018-07-28T10:25:33.416Z,2280.00
2018-07-28T10:26:33.395Z,2140.00
2018-07-28T10:27:33.477Z,2048.00
2018-07-28T10:28:33.523Z,1956.00
2018-07-28T10:29:33.553Z,1964.00
2018-07-28T10:30:33.837Z,2044.00
2018-07-28T10:31:33.578Z,2160.00
2018-07-28T10:32:33.666Z,2292.00
2018-07-28T10:33:33.656Z,2416.00
2018-07-28T10:34:33.703Z,2476.00
2018-07-28T10:35:33.787Z,2448.00
2018-07-28T10:36:34.170Z,2384.00
2018-07-28T10:37:33.865Z,2344.00
2018-07-28T10:38:33.896Z,2292.00
2018-07-28T10:39:33.881Z,2192.00
2018-07-28T10:40:33.976Z,2048.00
2018-07-28T10:41:34.017Z,1860.00
2018-07-28T10:42:34.059Z,1708.00
2018-07-28T10:43:34.038Z,1504.00
2018-07-28T10:44:34.123Z,1560.00
2018-07-28T10:45:34.187Z,1656.00
2018-07-28T10:46:34.155Z,1584.00
2018-07-28T10:47:34.232Z,1716.00
2018-07-28T10:48:34.279Z,1712.00
2018-07-28T10:49:34.316Z,1868.00
2018-07-28T10:50:34.351Z,1928.00
2018-07-28T10:51:34.343Z,1972.00
2018-07-28T10:52:34.379Z,2024.00
2018-07-28T10:53:34.497Z,2072.00
2018-07-28T10:54:34.500Z,2048.00
2018-07-28T10:55:34.900Z,2004.00
2018-07-28T10:56:34.523Z,1996.00
2018-07-28T10:57:34.617Z,2004.00
2018-07-28T10:58:34.653Z,2020.00
2018-07-28T10:59:34.691Z,2040.00
2018-07-28T11:00:34.701Z,2104.00
2018-07-28T11:01:35.014Z,2236.00
2018-07-28T11:02:34.807Z,2236.00
2018-07-28T11:03:34.845Z,2308.00
2018-07-28T11:04:34.880Z,2408.00
2018-07-28T11:05:34.928Z,2420.00
2018-07-28T11:06:34.905Z,2384.00
2018-07-28T11:07:35.258Z,2672.00
2018-07-28T11:08:34.985Z,2712.00
2018-07-28T11:09:35.079Z,2896.00
2018-07-28T11:10:35.109Z,3008.00
2018-07-28T11:11:35.090Z,3208.00
2018-07-28T11:12:35.140Z,3428.00
2018-07-28T11:13:35.225Z,3520.00
2018-07-28T11:14:35.209Z,3452.00
2018-07-28T11:15:35.302Z,3228.00
2018-07-28T11:16:35.331Z,3244.00
2018-07-28T11:17:35.327Z,3372.00
2018-07-28T11:18:35.411Z,3268.00
2018-07-28T11:19:35.700Z,2888.00
2018-07-28T11:20:35.441Z,2996.00
2018-07-28T11:21:35.523Z,2960.00
2018-07-28T11:22:35.607Z,2616.00
2018-07-28T11:23:35.565Z,2200.00
2018-07-28T11:24:35.591Z,1680.00
2018-07-28T11:25:35.702Z,1472.00
2018-07-28T11:26:35.966Z,1196.00
2018-07-28T11:27:35.763Z,1132.00
2018-07-28T11:28:35.746Z,1280.00
2018-07-28T11:29:35.833Z,1476.00
2018-07-28T11:30:35.821Z,1680.00
2018-07-28T11:31:35.988Z,1856.00
2018-07-28T11:32:35.943Z,2000.00
2018-07-28T11:33:36.276Z,2120.00
2018-07-28T11:34:35.967Z,2132.00
2018-07-28T11:35:36.007Z,2340.00
2018-07-28T11:36:36.103Z,2756.00
2018-07-28T11:37:36.085Z,2984.00
2018-07-28T11:38:36.119Z,2548.00
2018-07-28T11:39:36.225Z,2460.00
2018-07-28T11:40:36.494Z,2384.00
2018-07-28T11:41:36.283Z,2540.00
2018-07-28T11:42:36.272Z,2640.00
2018-07-28T11:43:36.314Z,2780.00
2018-07-28T11:44:36.399Z,3092.00
2018-07-28T11:45:36.438Z,3132.00
2018-07-28T11:46:36.474Z,3032.00
2018-07-28T11:47:36.814Z,3020.00
2018-07-28T11:48:36.554Z,2944.00
2018-07-28T11:49:36.590Z,2916.00
2018-07-28T11:50:36.637Z,3000.00
2018-07-28T11:51:36.674Z,3228.00
2018-07-28T11:52:36.659Z,3492.00
2018-07-28T11:53:36.746Z,3612.00
2018-07-28T11:54:36.728Z,3532.00
2018-07-28T11:55:36.813Z,3064.00
2018-07-28T11:56:36.856Z,2884.00
2018-07-28T11:57:36.840Z,3088.00
2018-07-28T11:58:36.896Z,3300.00
2018-07-28T11:59:36.978Z,3196.00
2018-07-28T12:00:37.312Z,3196.00
2018-07-28T12:01:37.065Z,2988.00
2018-07-28T12:02:37.033Z,2740.00
2018-07-28T12:03:37.120Z,2708.00
2018-07-28T12:04:37.169Z,2756.00
2018-07-28T12:05:37.290Z,2880.00
2018-07-28T12:06:37.491Z,2856.00
2018-07-28T12:07:37.228Z,2764.00
2018-07-28T12:08:37.268Z,2512.00
2018-07-28T12:09:37.306Z,2544.00
2018-07-28T12:10:37.412Z,2588.00
2018-07-28T12:11:37.423Z,2648.00
2018-07-28T12:12:37.773Z,2776.00
2018-07-28T12:13:37.502Z,2948.00
2018-07-28T12:14:37.560Z,3096.00
2018-07-28T12:15:37.543Z,3168.00
2018-07-28T12:16:37.574Z,3060.00
2018-07-28T12:17:37.620Z,2884.00
2018-07-28T12:18:37.718Z,2836.00
2018-07-28T12:19:37.990Z,2924.00
2018-07-28T12:20:37.721Z,2984.00
2018-07-28T12:21:37.823Z,3068.00
2018-07-28T12:22:37.799Z,3196.00
2018-07-28T12:23:37.835Z,3336.00
2018-07-28T12:24:37.929Z,3328.00
2018-07-28T12:25:37.965Z,3416.00
2018-07-28T12:26:38.270Z,3820.00
2018-07-28T12:27:37.992Z,3764.00
2018-07-28T12:28:38.023Z,4000.00
2018-07-28T12:29:38.111Z,4140.00
2018-07-28T12:30:38.154Z,3904.00
2018-07-28T12:31:38.203Z,3820.00
2018-07-28T12:32:38.239Z,3788.00
2018-07-28T12:33:38.576Z,3648.00
2018-07-28T12:34:38.331Z,3164.00
2018-07-28T12:35:38.349Z,2560.00
2018-07-28T12:36:38.340Z,2336.00
2018-07-28T12:37:38.366Z,2332.00
2018-07-28T12:38:38.411Z,2196.00
2018-07-28T12:39:38.496Z,2452.00
2018-07-28T12:40:38.889Z,2680.00
2018-07-28T12:41:38.530Z,2944.00
2018-07-28T12:42:38.573Z,3132.00
2018-07-28T12:43:38.662Z,3440.00
2018-07-28T12:44:38.648Z,4408.00
2018-07-28T12:45:38.741Z,4472.00
2018-07-28T12:46:38.769Z,3880.00
2018-07-28T12:47:39.106Z,3188.00
2018-07-28T12:48:38.856Z,2824.00
2018-07-28T12:49:38.899Z,2340.00
2018-07-28T12:50:38.863Z,2424.00
2018-07-28T12:51:38.929Z,2700.00
2018-07-28T12:52:39.005Z,3200.00